John James Audubon — WDE8037 — position and weather

sailwx.info

Track history (hours):
 
Tides and Currents Weather Stations Pressure Air Temp Water Temp Dewpoint Dewpoint Depression Visibility Wind Speed Wind Dir Waves Ship Positions

John James Audubon

Owner: Statue Cruises, Jersey City, NJ. More information available from US FCC via Universal Licensing System and Coast Guard Vessel Documentation Center.

Last reported at 2017-Aug-18 23:32 UTC. Time now 2017-Aug-19 09:23 UTC.
Position N 40°44' W 074°01'.

Length 37 m.

Type: Ship. MMSI: 367400770.

Date/timePositionNaut miles runAvg speedWind from/ knotsBaromVisibWave heightAir tempDewpointWater temp
2017-Aug-18 23:32N 40°44' W 074°01'0 0.0
2017-Aug-18 23:30N 40°44' W 074°01'0 0.4
2017-Aug-18 23:00N 40°44' W 074°01'1 1.3
2017-Aug-18 22:30N 40°43' W 074°01'1 2.5
2017-Aug-18 22:00N 40°42' W 074°00'2 4.1
2017-Aug-18 21:30N 40°41' W 074°03'2 4.1
2017-Aug-18 21:00N 40°42' W 074°00'0 0.0
2017-Aug-18 20:30N 40°42' W 074°00'2 3.3
2017-Aug-18 20:00N 40°41' W 074°02'2 3.3
2017-Aug-18 19:30N 40°42' W 074°00'0 0.0
2017-Aug-18 19:00N 40°42' W 074°00'1 2.6
2017-Aug-18 18:30N 40°41' W 074°02'1 2.5
2017-Aug-18 18:00N 40°42' W 074°00'0 0.1
2017-Aug-18 17:30N 40°42' W 074°00'2 4.2
2017-Aug-18 17:00N 40°41' W 074°02'2 4.2
2017-Aug-18 16:30N 40°42' W 074°00'0 0.0
2017-Aug-18 16:00N 40°42' W 074°00'2 4.5
2017-Aug-18 15:30N 40°41' W 074°03'2 4.5
2017-Aug-18 15:00N 40°42' W 074°00'2 2.0
2017-Aug-18 14:00N 40°41' W 074°02'2 3.9
2017-Aug-18 13:30N 40°42' W 074°00'0 0.0
2017-Aug-18 13:00N 40°42' W 074°00'1 2.1
2017-Aug-18 12:30N 40°43' W 074°01'1 1.8
2017-Aug-18 12:00N 40°44' W 074°01'0 0.0
2017-Aug-17 23:01N 40°44' W 074°01'0 0.0
2017-Aug-17 23:00N 40°44' W 074°01'2 3.3
2017-Aug-17 22:30N 40°42' W 074°00'0 0.0
2017-Aug-17 22:00N 40°42' W 074°00'2 4.1
2017-Aug-17 21:30N 40°41' W 074°03'2 4.1
2017-Aug-17 21:00N 40°42' W 074°00'0 0.0
2017-Aug-17 20:30N 40°42' W 074°00'2 4.1
2017-Aug-17 20:00N 40°41' W 074°03'2 4.1
2017-Aug-17 19:30N 40°42' W 074°00'0 0.0
2017-Aug-17 19:00N 40°42' W 074°00'2 4.0
2017-Aug-17 18:30N 40°41' W 074°02'2 3.9
2017-Aug-17 18:00N 40°42' W 074°00'0 0.0
2017-Aug-17 17:30N 40°42' W 074°00'2 4.1
2017-Aug-17 17:00N 40°41' W 074°03'2 4.1
2017-Aug-17 16:30N 40°42' W 074°00'0 0.0
2017-Aug-17 16:00N 40°42' W 074°00'2 3.7
2017-Aug-17 15:30N 40°41' W 074°02'2 3.7
2017-Aug-17 15:00N 40°42' W 074°00'0 0.0
2017-Aug-17 14:30N 40°42' W 074°00'2 3.5
2017-Aug-17 14:00N 40°41' W 074°02'2 3.5
2017-Aug-17 13:30N 40°42' W 074°00'1 1.9
2017-Aug-17 13:00N 40°43' W 074°01'1 0.1
2017-Aug-16 23:00N 40°44' W 074°01'1 2.6
2017-Aug-16 22:30N 40°43' W 074°01'1 1.7
2017-Aug-16 22:00N 40°42' W 074°00'2 4.2
2017-Aug-16 21:30N 40°41' W 074°03'2 4.2
2017-Aug-16 21:00N 40°42' W 074°00'0 0.0
2017-Aug-16 20:30N 40°42' W 074°00'2 4.0
2017-Aug-16 20:00N 40°41' W 074°02'2 3.9
2017-Aug-16 19:30N 40°42' W 074°00'0 0.0
2017-Aug-16 19:00N 40°42' W 074°00'0 0.0
2017-Aug-16 18:30N 40°42' W 074°00'0 0.0
2017-Aug-16 18:00N 40°42' W 074°00'0 0.0
2017-Aug-16 17:30N 40°42' W 074°00'1 2.7
2017-Aug-16 17:00N 40°41' W 074°02'1 2.6
2017-Aug-16 16:30N 40°42' W 074°00'0 0.0
2017-Aug-16 16:00N 40°42' W 074°00'2 3.4
2017-Aug-16 15:30N 40°41' W 074°02'2 3.4
2017-Aug-16 15:00N 40°42' W 074°00'0 0.0
2017-Aug-16 14:30N 40°42' W 074°00'2 4.1
2017-Aug-16 14:00N 40°41' W 074°02'2 4.1
2017-Aug-16 13:30N 40°42' W 074°00'2 0.1
2017-Aug-15 20:23N 40°44' W 074°01'1 2.1
2017-Aug-15 20:00N 40°43' W 074°01'1 2.2
2017-Aug-15 19:30N 40°42' W 074°00'2 4.2
2017-Aug-15 19:00N 40°41' W 074°03'2 4.2
2017-Aug-15 18:30N 40°42' W 074°00'0 0.0
2017-Aug-15 18:00N 40°42' W 074°00'2 4.2
2017-Aug-15 17:30N 40°41' W 074°03'2 4.2
2017-Aug-15 17:00N 40°42' W 074°00'0 0.0
2017-Aug-15 16:30N 40°42' W 074°00'2 4.0
2017-Aug-15 16:00N 40°41' W 074°02'2 4.0
2017-Aug-15 15:30N 40°42' W 074°00'0 0.0
2017-Aug-15 15:00N 40°42' W 074°00'2 4.2
2017-Aug-15 14:30N 40°41' W 074°03'2 4.2
2017-Aug-15 14:00N 40°42' W 074°00'0 0.3
2017-Aug-15 13:30N 40°42' W 074°00'2 3.6
2017-Aug-15 13:00N 40°44' W 074°01'0 0.3
2017-Aug-15 12:30N 40°44' W 074°01'0 0.0
2017-Aug-15 12:00N 40°44' W 074°01'0 0.0
2017-Aug-15 11:30N 40°44' W 074°01'0 0.0
2017-Aug-14 22:49N 40°44' W 074°01'0 0.9
2017-Aug-14 22:30N 40°44' W 074°01'2 3.0
2017-Aug-14 22:00N 40°42' W 074°00'1 2.8
2017-Aug-14 21:30N 40°42' W 074°02'1 2.8
2017-Aug-14 21:00N 40°42' W 074°00'0 0.0
2017-Aug-14 20:30N 40°42' W 074°00'2 3.8
2017-Aug-14 20:00N 40°41' W 074°02'2 3.7
2017-Aug-14 19:30N 40°42' W 074°00'0 0.0
2017-Aug-14 19:00N 40°42' W 074°00'2 4.0
2017-Aug-14 18:31N 40°41' W 074°02'2 4.0
2017-Aug-14 18:01N 40°42' W 074°00'0 0.0
2017-Aug-14 17:31N 40°42' W 074°00'2 4.1
2017-Aug-14 17:01N 40°41' W 074°02'2 4.0
2017-Aug-14 16:30N 40°42' W 074°00'0 0.0
2017-Aug-14 16:00N 40°42' W 074°00'2 4.0
2017-Aug-14 15:30N 40°41' W 074°02'2 3.9
2017-Aug-14 15:00N 40°42' W 074°00'0 0.0
2017-Aug-14 14:30N 40°42' W 074°00'2 4.1
2017-Aug-14 14:00N 40°41' W 074°03'2 4.1
2017-Aug-14 13:31N 40°42' W 074°00'0 0.0
2017-Aug-14 13:01N 40°42' W 074°00'1 2.1
2017-Aug-14 12:31N 40°43' W 074°01'1 0.1
2017-Aug-14 02:29N 40°44' W 074°01'0 0.0
2017-Aug-14 02:01N 40°44' W 074°01'1 2.8
2017-Aug-14 01:31N 40°43' W 074°01'1 1.8
2017-Aug-14 01:01N 40°42' W 074°00'2 4.6
2017-Aug-14 00:31N 40°44' W 073°58'3 5.4
2017-Aug-14 00:00N 40°42' W 074°01'1 3.0
2017-Aug-13 23:30N 40°44' W 074°01'0 0.0
2017-Aug-13 23:00N 40°44' W 074°01'0 0.0
2017-Aug-13 22:30N 40°44' W 074°01'0 0.0
2017-Aug-13 22:00N 40°44' W 074°01'0 0.0
2017-Aug-13 21:31N 40°44' W 074°01'0 0.0
2017-Aug-13 21:01N 40°44' W 074°01'0 0.0
2017-Aug-13 20:30N 40°44' W 074°01'2 3.3
2017-Aug-13 20:01N 40°42' W 074°00'0 0.1
2017-Aug-13 19:30N 40°42' W 074°00'2 3.9
2017-Aug-13 19:01N 40°41' W 074°02'2 3.9
2017-Aug-13 18:31N 40°42' W 074°00'0 0.8
2017-Aug-13 18:00N 40°42' W 073°60'2 4.9
2017-Aug-13 17:31N 40°41' W 074°02'2 4.1
2017-Aug-13 17:01N 40°42' W 074°00'0 0.5
2017-Aug-13 16:31N 40°42' W 073°60'2 4.4
2017-Aug-13 16:01N 40°41' W 074°02'2 4.0
2017-Aug-13 15:31N 40°42' W 074°00'0 0.0
2017-Aug-13 15:01N 40°42' W 074°00'2 4.0
2017-Aug-13 14:31N 40°41' W 074°02'2 4.0
2017-Aug-13 14:01N 40°42' W 074°00'0 0.0
2017-Aug-13 13:31N 40°42' W 074°00'2 0.3
2017-Aug-13 07:24N 40°44' W 074°01'0 0.0
2017-Aug-13 07:00N 40°44' W 074°01'0 0.0
2017-Aug-13 06:30N 40°44' W 074°01'3 5.3
2017-Aug-13 06:00N 40°41' W 074°02'2 4.0
2017-Aug-13 05:30N 40°42' W 073°60'1 1.1
2017-Aug-13 05:00N 40°42' W 073°59'2 3.8
2017-Aug-13 04:30N 40°44' W 074°01'3 5.0
2017-Aug-13 04:00N 40°46' W 074°00'2 0.4
2017-Aug-12 22:33N 40°44' W 074°01'0 0.0
2017-Aug-12 22:30N 40°44' W 074°01'2 3.3
2017-Aug-12 22:00N 40°42' W 074°00'2 3.4
2017-Aug-12 21:31N 40°41' W 074°02'2 3.4
2017-Aug-12 21:00N 40°42' W 074°00'0 0.0
2017-Aug-12 20:30N 40°42' W 074°00'2 3.5
2017-Aug-12 20:01N 40°41' W 074°02'2 3.5
2017-Aug-12 19:31N 40°42' W 074°00'0 0.0
2017-Aug-12 19:01N 40°42' W 074°00'2 3.0
2017-Aug-12 18:31N 40°42' W 074°02'2 3.0
2017-Aug-12 18:00N 40°42' W 074°00'0 0.0
2017-Aug-12 17:31N 40°42' W 074°00'2 4.0
2017-Aug-12 17:01N 40°41' W 074°02'2 4.0
2017-Aug-12 16:31N 40°42' W 074°00'0 0.0
2017-Aug-12 16:01N 40°42' W 074°00'2 4.2
2017-Aug-12 15:30N 40°41' W 074°03'2 4.2
2017-Aug-12 15:01N 40°42' W 074°00'0 0.0
2017-Aug-12 14:31N 40°42' W 074°00'2 4.0
2017-Aug-12 14:01N 40°41' W 074°02'2 4.0
2017-Aug-12 13:31N 40°42' W 074°00'0 0.0
2017-Aug-12 13:01N 40°42' W 074°00'1 1.9
2017-Aug-12 12:30N 40°43' W 074°01'1 2.3
2017-Aug-12 12:00N 40°44' W 074°01'0 0.0
2017-Aug-10 22:57N 40°44' W 074°01'0 0.4
2017-Aug-10 22:30N 40°44' W 074°01'2 3.4
2017-Aug-10 22:00N 40°42' W 074°00'2 4.0
2017-Aug-10 21:30N 40°41' W 074°02'2 4.0
2017-Aug-10 21:00N 40°42' W 074°00'0 0.0
2017-Aug-10 20:30N 40°42' W 074°00'2 4.0
2017-Aug-10 20:00N 40°41' W 074°02'2 3.9
2017-Aug-10 19:30N 40°42' W 074°00'0 0.0
2017-Aug-10 19:00N 40°42' W 074°00'2 3.8
2017-Aug-10 18:30N 40°41' W 074°02'2 3.8
2017-Aug-10 18:00N 40°42' W 074°00'0 0.0
2017-Aug-10 17:30N 40°42' W 074°00'2 4.0
2017-Aug-10 17:00N 40°41' W 074°02'2 4.0
2017-Aug-10 16:30N 40°42' W 074°00'0 0.0
2017-Aug-10 16:00N 40°42' W 074°00'2 4.0
2017-Aug-10 15:30N 40°41' W 074°02'2 3.9
2017-Aug-10 15:00N 40°42' W 074°00'0 0.0
2017-Aug-10 14:30N 40°42' W 074°00'2 3.8
2017-Aug-10 14:00N 40°41' W 074°02'2 3.8
2017-Aug-10 13:30N 40°42' W 074°00'0 0.0
2017-Aug-10 13:00N 40°42' W 074°00'2 0.1
2017-Aug-09 22:37N 40°44' W 074°01'0 0.0
2017-Aug-09 22:30N 40°44' W 074°01'2 3.3
2017-Aug-09 22:00N 40°42' W 074°00'2 4.0
2017-Aug-09 21:30N 40°41' W 074°02'2 4.0
2017-Aug-09 21:00N 40°42' W 074°00'0 0.0
2017-Aug-09 20:30N 40°42' W 074°00'2 3.4
2017-Aug-09 20:00N 40°41' W 074°02'2 3.4
2017-Aug-09 19:30N 40°42' W 074°00'0 0.0
2017-Aug-09 19:00N 40°42' W 074°00'2 3.4
2017-Aug-09 18:30N 40°41' W 074°02'2 3.4
2017-Aug-09 18:00N 40°42' W 074°00'0 0.0
2017-Aug-09 17:30N 40°42' W 074°00'2 3.5
2017-Aug-09 17:00N 40°41' W 074°02'2 3.4
2017-Aug-09 16:30N 40°42' W 074°00'0 0.0
2017-Aug-09 16:00N 40°42' W 074°00'2 4.2
2017-Aug-09 15:30N 40°41' W 074°03'2 4.2
2017-Aug-09 15:00N 40°42' W 074°00'0 0.0
2017-Aug-09 14:30N 40°42' W 074°00'2 4.2
2017-Aug-09 14:00N 40°41' W 074°03'2 4.2
2017-Aug-09 13:30N 40°42' W 074°00'0 0.0
2017-Aug-09 13:00N 40°42' W 074°00'2 3.2
2017-Aug-09 12:30N 40°44' W 074°01'0 0.0
2017-Aug-09 12:00N 40°44' W 074°01'0 0.0
2017-Aug-09 03:17N 40°44' W 074°01'0 0.0
2017-Aug-09 03:00N 40°44' W 074°01'2 3.3
2017-Aug-09 02:30N 40°42' W 074°01'1 1.0
2017-Aug-09 02:01N 40°42' W 074°01'1 1.9
2017-Aug-09 01:31N 40°43' W 074°01'3 5.3
2017-Aug-09 01:00N 40°45' W 074°01'2 3.1
2017-Aug-09 00:31N 40°44' W 074°01'0 0.0
2017-Aug-09 00:00N 40°44' W 074°01'  
Track history (hours):
 
Tides and Currents Weather Stations Pressure Air Temp Water Temp Dewpoint Dewpoint Depression Visibility Wind Speed Wind Dir Waves Ship Positions

John James Audubon

Owner: Statue Cruises, Jersey City, NJ. More information available from US FCC via Universal Licensing System and Coast Guard Vessel Documentation Center.

Last reported at 2017-Aug-18 23:32 UTC. Time now 2017-Aug-19 09:23 UTC.
Position N 40°44' W 074°01'.

Length 37 m.

Type: Ship. MMSI: 367400770.

Date/timePositionNaut miles runAvg speedWind from/ knotsBaromVisibWave heightAir tempDewpointWater temp
2017-Aug-18 23:32N 40°44' W 074°01'0 0.0
2017-Aug-18 23:30N 40°44' W 074°01'0 0.4
2017-Aug-18 23:00N 40°44' W 074°01'1 1.3
2017-Aug-18 22:30N 40°43' W 074°01'1 2.5
2017-Aug-18 22:00N 40°42' W 074°00'2 4.1
2017-Aug-18 21:30N 40°41' W 074°03'2 4.1
2017-Aug-18 21:00N 40°42' W 074°00'0 0.0
2017-Aug-18 20:30N 40°42' W 074°00'2 3.3
2017-Aug-18 20:00N 40°41' W 074°02'2 3.3
2017-Aug-18 19:30N 40°42' W 074°00'0 0.0
2017-Aug-18 19:00N 40°42' W 074°00'1 2.6
2017-Aug-18 18:30N 40°41' W 074°02'1 2.5
2017-Aug-18 18:00N 40°42' W 074°00'0 0.1
2017-Aug-18 17:30N 40°42' W 074°00'2 4.2
2017-Aug-18 17:00N 40°41' W 074°02'2 4.2
2017-Aug-18 16:30N 40°42' W 074°00'0 0.0
2017-Aug-18 16:00N 40°42' W 074°00'2 4.5
2017-Aug-18 15:30N 40°41' W 074°03'2 4.5
2017-Aug-18 15:00N 40°42' W 074°00'2 2.0
2017-Aug-18 14:00N 40°41' W 074°02'2 3.9
2017-Aug-18 13:30N 40°42' W 074°00'0 0.0
2017-Aug-18 13:00N 40°42' W 074°00'1 2.1
2017-Aug-18 12:30N 40°43' W 074°01'1 1.8
2017-Aug-18 12:00N 40°44' W 074°01'0 0.0
2017-Aug-17 23:01N 40°44' W 074°01'0 0.0
2017-Aug-17 23:00N 40°44' W 074°01'2 3.3
2017-Aug-17 22:30N 40°42' W 074°00'0 0.0
2017-Aug-17 22:00N 40°42' W 074°00'2 4.1
2017-Aug-17 21:30N 40°41' W 074°03'2 4.1
2017-Aug-17 21:00N 40°42' W 074°00'0 0.0
2017-Aug-17 20:30N 40°42' W 074°00'2 4.1
2017-Aug-17 20:00N 40°41' W 074°03'2 4.1
2017-Aug-17 19:30N 40°42' W 074°00'0 0.0
2017-Aug-17 19:00N 40°42' W 074°00'2 4.0
2017-Aug-17 18:30N 40°41' W 074°02'2 3.9
2017-Aug-17 18:00N 40°42' W 074°00'0 0.0
2017-Aug-17 17:30N 40°42' W 074°00'2 4.1
2017-Aug-17 17:00N 40°41' W 074°03'2 4.1
2017-Aug-17 16:30N 40°42' W 074°00'0 0.0
2017-Aug-17 16:00N 40°42' W 074°00'2 3.7
2017-Aug-17 15:30N 40°41' W 074°02'2 3.7
2017-Aug-17 15:00N 40°42' W 074°00'0 0.0
2017-Aug-17 14:30N 40°42' W 074°00'2 3.5
2017-Aug-17 14:00N 40°41' W 074°02'2 3.5
2017-Aug-17 13:30N 40°42' W 074°00'1 1.9
2017-Aug-17 13:00N 40°43' W 074°01'1 0.1
2017-Aug-16 23:00N 40°44' W 074°01'1 2.6
2017-Aug-16 22:30N 40°43' W 074°01'1 1.7
2017-Aug-16 22:00N 40°42' W 074°00'2 4.2
2017-Aug-16 21:30N 40°41' W 074°03'2 4.2
2017-Aug-16 21:00N 40°42' W 074°00'0 0.0
2017-Aug-16 20:30N 40°42' W 074°00'2 4.0
2017-Aug-16 20:00N 40°41' W 074°02'2 3.9
2017-Aug-16 19:30N 40°42' W 074°00'0 0.0
2017-Aug-16 19:00N 40°42' W 074°00'0 0.0
2017-Aug-16 18:30N 40°42' W 074°00'0 0.0
2017-Aug-16 18:00N 40°42' W 074°00'0 0.0
2017-Aug-16 17:30N 40°42' W 074°00'1 2.7
2017-Aug-16 17:00N 40°41' W 074°02'1 2.6
2017-Aug-16 16:30N 40°42' W 074°00'0 0.0
2017-Aug-16 16:00N 40°42' W 074°00'2 3.4
2017-Aug-16 15:30N 40°41' W 074°02'2 3.4
2017-Aug-16 15:00N 40°42' W 074°00'0 0.0
2017-Aug-16 14:30N 40°42' W 074°00'2 4.1
2017-Aug-16 14:00N 40°41' W 074°02'2 4.1
2017-Aug-16 13:30N 40°42' W 074°00'2 0.1
2017-Aug-15 20:23N 40°44' W 074°01'1 2.1
2017-Aug-15 20:00N 40°43' W 074°01'1 2.2
2017-Aug-15 19:30N 40°42' W 074°00'2 4.2
2017-Aug-15 19:00N 40°41' W 074°03'2 4.2
2017-Aug-15 18:30N 40°42' W 074°00'0 0.0
2017-Aug-15 18:00N 40°42' W 074°00'2 4.2
2017-Aug-15 17:30N 40°41' W 074°03'2 4.2
2017-Aug-15 17:00N 40°42' W 074°00'0 0.0
2017-Aug-15 16:30N 40°42' W 074°00'2 4.0
2017-Aug-15 16:00N 40°41' W 074°02'2 4.0
2017-Aug-15 15:30N 40°42' W 074°00'0 0.0
2017-Aug-15 15:00N 40°42' W 074°00'2 4.2
2017-Aug-15 14:30N 40°41' W 074°03'2 4.2
2017-Aug-15 14:00N 40°42' W 074°00'0 0.3
2017-Aug-15 13:30N 40°42' W 074°00'2 3.6
2017-Aug-15 13:00N 40°44' W 074°01'0 0.3
2017-Aug-15 12:30N 40°44' W 074°01'0 0.0
2017-Aug-15 12:00N 40°44' W 074°01'0 0.0
2017-Aug-15 11:30N 40°44' W 074°01'0 0.0
2017-Aug-14 22:49N 40°44' W 074°01'0 0.9
2017-Aug-14 22:30N 40°44' W 074°01'2 3.0
2017-Aug-14 22:00N 40°42' W 074°00'1 2.8
2017-Aug-14 21:30N 40°42' W 074°02'1 2.8
2017-Aug-14 21:00N 40°42' W 074°00'0 0.0
2017-Aug-14 20:30N 40°42' W 074°00'2 3.8
2017-Aug-14 20:00N 40°41' W 074°02'2 3.7
2017-Aug-14 19:30N 40°42' W 074°00'0 0.0
2017-Aug-14 19:00N 40°42' W 074°00'2 4.0
2017-Aug-14 18:31N 40°41' W 074°02'2 4.0
2017-Aug-14 18:01N 40°42' W 074°00'0 0.0
2017-Aug-14 17:31N 40°42' W 074°00'2 4.1
2017-Aug-14 17:01N 40°41' W 074°02'2 4.0
2017-Aug-14 16:30N 40°42' W 074°00'0 0.0
2017-Aug-14 16:00N 40°42' W 074°00'2 4.0
2017-Aug-14 15:30N 40°41' W 074°02'2 3.9
2017-Aug-14 15:00N 40°42' W 074°00'0 0.0
2017-Aug-14 14:30N 40°42' W 074°00'2 4.1
2017-Aug-14 14:00N 40°41' W 074°03'2 4.1
2017-Aug-14 13:31N 40°42' W 074°00'0 0.0
2017-Aug-14 13:01N 40°42' W 074°00'1 2.1
2017-Aug-14 12:31N 40°43' W 074°01'1 0.1
2017-Aug-14 02:29N 40°44' W 074°01'0 0.0
2017-Aug-14 02:01N 40°44' W 074°01'1 2.8
2017-Aug-14 01:31N 40°43' W 074°01'1 1.8
2017-Aug-14 01:01N 40°42' W 074°00'2 4.6
2017-Aug-14 00:31N 40°44' W 073°58'3 5.4
2017-Aug-14 00:00N 40°42' W 074°01'1 3.0
2017-Aug-13 23:30N 40°44' W 074°01'0 0.0
2017-Aug-13 23:00N 40°44' W 074°01'0 0.0
2017-Aug-13 22:30N 40°44' W 074°01'0 0.0
2017-Aug-13 22:00N 40°44' W 074°01'0 0.0
2017-Aug-13 21:31N 40°44' W 074°01'0 0.0
2017-Aug-13 21:01N 40°44' W 074°01'0 0.0
2017-Aug-13 20:30N 40°44' W 074°01'2 3.3
2017-Aug-13 20:01N 40°42' W 074°00'0 0.1
2017-Aug-13 19:30N 40°42' W 074°00'2 3.9
2017-Aug-13 19:01N 40°41' W 074°02'2 3.9
2017-Aug-13 18:31N 40°42' W 074°00'0 0.8
2017-Aug-13 18:00N 40°42' W 073°60'2 4.9
2017-Aug-13 17:31N 40°41' W 074°02'2 4.1
2017-Aug-13 17:01N 40°42' W 074°00'0 0.5
2017-Aug-13 16:31N 40°42' W 073°60'2 4.4
2017-Aug-13 16:01N 40°41' W 074°02'2 4.0
2017-Aug-13 15:31N 40°42' W 074°00'0 0.0
2017-Aug-13 15:01N 40°42' W 074°00'2 4.0
2017-Aug-13 14:31N 40°41' W 074°02'2 4.0
2017-Aug-13 14:01N 40°42' W 074°00'0 0.0
2017-Aug-13 13:31N 40°42' W 074°00'2 0.3
2017-Aug-13 07:24N 40°44' W 074°01'0 0.0
2017-Aug-13 07:00N 40°44' W 074°01'0 0.0
2017-Aug-13 06:30N 40°44' W 074°01'3 5.3
2017-Aug-13 06:00N 40°41' W 074°02'2 4.0
2017-Aug-13 05:30N 40°42' W 073°60'1 1.1
2017-Aug-13 05:00N 40°42' W 073°59'2 3.8
2017-Aug-13 04:30N 40°44' W 074°01'3 5.0
2017-Aug-13 04:00N 40°46' W 074°00'2 0.4
2017-Aug-12 22:33N 40°44' W 074°01'0 0.0
2017-Aug-12 22:30N 40°44' W 074°01'2 3.3
2017-Aug-12 22:00N 40°42' W 074°00'2 3.4
2017-Aug-12 21:31N 40°41' W 074°02'2 3.4
2017-Aug-12 21:00N 40°42' W 074°00'0 0.0
2017-Aug-12 20:30N 40°42' W 074°00'2 3.5
2017-Aug-12 20:01N 40°41' W 074°02'2 3.5
2017-Aug-12 19:31N 40°42' W 074°00'0 0.0
2017-Aug-12 19:01N 40°42' W 074°00'2 3.0
2017-Aug-12 18:31N 40°42' W 074°02'2 3.0
2017-Aug-12 18:00N 40°42' W 074°00'0 0.0
2017-Aug-12 17:31N 40°42' W 074°00'2 4.0
2017-Aug-12 17:01N 40°41' W 074°02'2 4.0
2017-Aug-12 16:31N 40°42' W 074°00'0 0.0
2017-Aug-12 16:01N 40°42' W 074°00'2 4.2
2017-Aug-12 15:30N 40°41' W 074°03'2 4.2
2017-Aug-12 15:01N 40°42' W 074°00'0 0.0
2017-Aug-12 14:31N 40°42' W 074°00'2 4.0
2017-Aug-12 14:01N 40°41' W 074°02'2 4.0
2017-Aug-12 13:31N 40°42' W 074°00'0 0.0
2017-Aug-12 13:01N 40°42' W 074°00'1 1.9
2017-Aug-12 12:30N 40°43' W 074°01'1 2.3
2017-Aug-12 12:00N 40°44' W 074°01'0 0.0
2017-Aug-10 22:57N 40°44' W 074°01'0 0.4
2017-Aug-10 22:30N 40°44' W 074°01'2 3.4
2017-Aug-10 22:00N 40°42' W 074°00'2 4.0
2017-Aug-10 21:30N 40°41' W 074°02'2 4.0
2017-Aug-10 21:00N 40°42' W 074°00'0 0.0
2017-Aug-10 20:30N 40°42' W 074°00'2 4.0
2017-Aug-10 20:00N 40°41' W 074°02'2 3.9
2017-Aug-10 19:30N 40°42' W 074°00'0 0.0
2017-Aug-10 19:00N 40°42' W 074°00'2 3.8
2017-Aug-10 18:30N 40°41' W 074°02'2 3.8
2017-Aug-10 18:00N 40°42' W 074°00'0 0.0
2017-Aug-10 17:30N 40°42' W 074°00'2 4.0
2017-Aug-10 17:00N 40°41' W 074°02'2 4.0
2017-Aug-10 16:30N 40°42' W 074°00'0 0.0
2017-Aug-10 16:00N 40°42' W 074°00'2 4.0
2017-Aug-10 15:30N 40°41' W 074°02'2 3.9
2017-Aug-10 15:00N 40°42' W 074°00'0 0.0
2017-Aug-10 14:30N 40°42' W 074°00'2 3.8
2017-Aug-10 14:00N 40°41' W 074°02'2 3.8
2017-Aug-10 13:30N 40°42' W 074°00'0 0.0
2017-Aug-10 13:00N 40°42' W 074°00'2 0.1
2017-Aug-09 22:37N 40°44' W 074°01'0 0.0
2017-Aug-09 22:30N 40°44' W 074°01'2 3.3
2017-Aug-09 22:00N 40°42' W 074°00'2 4.0
2017-Aug-09 21:30N 40°41' W 074°02'2 4.0
2017-Aug-09 21:00N 40°42' W 074°00'0 0.0
2017-Aug-09 20:30N 40°42' W 074°00'2 3.4
2017-Aug-09 20:00N 40°41' W 074°02'2 3.4
2017-Aug-09 19:30N 40°42' W 074°00'0 0.0
2017-Aug-09 19:00N 40°42' W 074°00'2 3.4
2017-Aug-09 18:30N 40°41' W 074°02'2 3.4
2017-Aug-09 18:00N 40°42' W 074°00'0 0.0
2017-Aug-09 17:30N 40°42' W 074°00'2 3.5
2017-Aug-09 17:00N 40°41' W 074°02'2 3.4
2017-Aug-09 16:30N 40°42' W 074°00'0 0.0
2017-Aug-09 16:00N 40°42' W 074°00'2 4.2
2017-Aug-09 15:30N 40°41' W 074°03'2 4.2
2017-Aug-09 15:00N 40°42' W 074°00'0 0.0
2017-Aug-09 14:30N 40°42' W 074°00'2 4.2
2017-Aug-09 14:00N 40°41' W 074°03'2 4.2
2017-Aug-09 13:30N 40°42' W 074°00'0 0.0
2017-Aug-09 13:00N 40°42' W 074°00'2 3.2
2017-Aug-09 12:30N 40°44' W 074°01'0 0.0
2017-Aug-09 12:00N 40°44' W 074°01'0 0.0
2017-Aug-09 03:17N 40°44' W 074°01'0 0.0
2017-Aug-09 03:00N 40°44' W 074°01'2 3.3
2017-Aug-09 02:30N 40°42' W 074°01'1 1.0
2017-Aug-09 02:01N 40°42' W 074°01'1 1.9
2017-Aug-09 01:31N 40°43' W 074°01'3 5.3
2017-Aug-09 01:00N 40°45' W 074°01'2 3.1
2017-Aug-09 00:31N 40°44' W 074°01'0 0.0
2017-Aug-09 00:00N 40°44' W 074°01'  

Dump ship's entire track history